Time;durP1;ratioP1;P1;durP2;ratioP2;P2;SDS_P1;SDS_P2;PMS_P1;PMS_P2;Temp;Humidity;BMP_temperature;BMP_pressure;BME280_temperature;BME280_humidity;BME280_pressure;Samples;Min_cycle;Max_cycle;Signal;HPM_P1;HPM_P2
2024/02/04 00:00:39;;;;;;;4.00;3.70;;;8.40;57.50;;;;;;5020946;28;20284;-64
2024/02/04 00:03:05;;;;;;;4.10;3.80;;;8.30;57.50;;;;;;5021907;28;20318;-67
2024/02/04 00:05:32;;;;;;;5.13;3.73;;;8.30;57.90;;;;;;5020343;28;20242;-66
2024/02/04 00:07:58;;;;;;;4.30;3.90;;;8.30;58.20;;;;;;5017436;28;20266;-66
2024/02/04 00:10:26;;;;;;;4.53;4.00;;;8.30;58.00;;;;;;5020272;28;20207;-66
2024/02/04 00:12:53;;;;;;;4.20;3.80;;;8.40;57.60;;;;;;5025794;28;20219;-64
2024/02/04 00:15:20;;;;;;;4.30;3.97;;;8.20;58.10;;;;;;5016759;28;20443;-66
2024/02/04 00:17:46;;;;;;;4.07;3.77;;;8.10;58.30;;;;;;5023228;28;20239;-66
2024/02/04 00:20:13;;;;;;;4.07;3.67;;;8.10;58.70;;;;;;5024982;28;20238;-66
2024/02/04 00:22:39;;;;;;;4.53;3.40;;;8.20;58.30;;;;;;5017598;28;20227;-65
2024/02/04 00:25:06;;;;;;;4.33;3.70;;;8.30;58.30;;;;;;5024213;28;20214;-66
2024/02/04 00:27:33;;;;;;;3.63;3.33;;;8.20;58.40;;;;;;5025468;28;20290;-66
2024/02/04 00:29:59;;;;;;;3.50;3.30;;;8.30;58.10;;;;;;5024873;28;20234;-66
2024/02/04 00:32:26;;;;;;;3.77;3.47;;;8.20;58.50;;;;;;5020193;28;20241;-65
2024/02/04 00:34:52;;;;;;;4.50;4.10;;;8.10;58.50;;;;;;5022425;28;20246;-65
2024/02/04 00:37:19;;;;;;;3.70;3.40;;;8.00;58.90;;;;;;5022160;28;20214;-66
2024/02/04 00:39:45;;;;;;;4.10;3.70;;;8.00;59.00;;;;;;5021202;28;20281;-66
2024/02/04 00:42:12;;;;;;;4.17;3.87;;;8.00;59.20;;;;;;5021288;28;20254;-66
2024/02/04 00:44:38;;;;;;;3.70;3.40;;;8.00;59.60;;;;;;5021057;28;20214;-66
2024/02/04 00:47:05;;;;;;;4.43;3.90;;;7.80;59.70;;;;;;5024224;28;20682;-66
2024/02/04 00:49:31;;;;;;;3.77;3.37;;;8.00;59.10;;;;;;5024179;28;20284;-66
2024/02/04 00:51:58;;;;;;;3.50;3.30;;;8.00;59.20;;;;;;5023538;28;20247;-66
2024/02/04 00:54:25;;;;;;;3.70;3.40;;;7.90;59.60;;;;;;5022412;28;20274;-65
2024/02/04 00:56:51;;;;;;;3.97;3.67;;;8.00;59.30;;;;;;5022211;28;20246;-65
2024/02/04 00:59:17;;;;;;;3.97;3.67;;;8.10;59.10;;;;;;5020914;28;20711;-65
2024/02/04 01:01:44;;;;;;;4.00;3.70;;;8.10;59.00;;;;;;5022590;28;20260;-66
2024/02/04 01:04:11;;;;;;;3.53;3.23;;;8.10;58.70;;;;;;5024680;28;20265;-66
2024/02/04 01:06:37;;;;;;;4.10;3.80;;;8.10;58.90;;;;;;5019131;28;20237;-66
2024/02/04 01:09:04;;;;;;;4.33;3.93;;;8.00;59.10;;;;;;5023854;28;20323;-65
2024/02/04 01:11:31;;;;;;;4.73;4.33;;;8.10;59.10;;;;;;5027052;28;20284;-65
2024/02/04 01:13:58;;;;;;;6.73;4.10;;;7.90;59.80;;;;;;5019145;28;20249;-66
2024/02/04 01:16:24;;;;;;;5.10;4.60;;;7.90;59.80;;;;;;5018689;28;20205;-65
2024/02/04 01:18:51;;;;;;;5.23;4.83;;;7.80;59.80;;;;;;5022024;28;20281;-66
2024/02/04 01:21:17;;;;;;;4.87;4.47;;;7.80;59.70;;;;;;5013564;28;20296;-65
2024/02/04 01:23:44;;;;;;;5.70;5.30;;;7.80;59.70;;;;;;5024896;28;20217;-66
2024/02/04 01:26:10;;;;;;;5.40;4.90;;;7.90;59.50;;;;;;5015961;28;20214;-65
2024/02/04 01:28:37;;;;;;;5.00;4.60;;;7.80;59.90;;;;;;5026718;28;20993;-66
2024/02/04 01:31:04;;;;;;;5.57;5.03;;;7.90;59.20;;;;;;5020417;28;20708;-66
2024/02/04 01:33:30;;;;;;;5.30;4.90;;;7.80;59.50;;;;;;5020439;28;20260;-67
2024/02/04 01:35:58;;;;;;;4.97;4.57;;;7.70;59.70;;;;;;5022161;28;20787;-66
2024/02/04 01:38:25;;;;;;;5.40;4.90;;;7.70;59.80;;;;;;5024894;28;20209;-66
2024/02/04 01:40:53;;;;;;;4.73;4.33;;;7.80;59.60;;;;;;5024730;28;20237;-66
2024/02/04 01:43:21;;;;;;;4.63;4.23;;;7.60;59.70;;;;;;5021719;28;20300;-66
2024/02/04 01:45:47;;;;;;;4.87;4.47;;;7.70;59.70;;;;;;5024231;28;20206;-66
2024/02/04 01:48:15;;;;;;;5.03;4.63;;;7.60;59.90;;;;;;5018107;28;20315;-65
2024/02/04 01:50:42;;;;;;;4.80;4.40;;;7.60;60.10;;;;;;5021214;28;20688;-66
2024/02/04 01:53:08;;;;;;;4.33;4.00;;;7.70;59.50;;;;;;5022921;28;20268;-66
2024/02/04 01:55:35;;;;;;;5.10;4.70;;;7.80;59.30;;;;;;5024909;28;20269;-66
2024/02/04 01:58:01;;;;;;;4.60;4.20;;;7.80;59.10;;;;;;5023509;28;20210;-65
2024/02/04 02:00:28;;;;;;;4.43;4.03;;;7.70;59.10;;;;;;5021472;28;20281;-66
2024/02/04 02:02:54;;;;;;;4.57;4.17;;;7.80;59.00;;;;;;5023561;28;20292;-66
2024/02/04 02:05:21;;;;;;;4.70;4.40;;;7.70;59.10;;;;;;5016964;28;20666;-66
2024/02/04 02:07:51;;;;;;;4.70;4.30;;;7.60;59.30;;;;;;5017155;28;20214;-66
2024/02/04 02:10:17;;;;;;;4.60;4.20;;;7.80;58.90;;;;;;5023775;28;20586;-66
2024/02/04 02:12:44;;;;;;;4.87;4.47;;;7.80;58.70;;;;;;5016820;28;20585;-66
2024/02/04 02:15:09;;;;;;;4.60;4.20;;;7.80;58.50;;;;;;5020522;28;20277;-66
2024/02/04 02:17:36;;;;;;;4.17;3.87;;;7.80;58.10;;;;;;5023801;28;20671;-66
2024/02/04 02:20:04;;;;;;;5.67;5.17;;;7.90;58.90;;;;;;5023641;28;20205;-66
2024/02/04 02:22:30;;;;;;;4.47;4.10;;;7.80;58.30;;;;;;5024845;28;20746;-66
2024/02/04 02:24:57;;;;;;;4.67;4.33;;;7.90;57.60;;;;;;5018056;28;20297;-66
2024/02/04 02:27:24;;;;;;;5.33;3.77;;;7.90;57.70;;;;;;5019387;28;20214;-65
2024/02/04 02:29:51;;;;;;;4.50;4.10;;;7.90;57.60;;;;;;5022135;28;20283;-66
2024/02/04 02:32:17;;;;;;;4.20;3.90;;;7.80;57.90;;;;;;5020272;28;20238;-66
2024/02/04 02:34:44;;;;;;;4.50;4.20;;;7.70;58.10;;;;;;5022131;28;20202;-66
2024/02/04 02:37:10;;;;;;;4.60;4.20;;;7.70;58.20;;;;;;5021634;28;20638;-66
2024/02/04 02:39:37;;;;;;;4.87;4.47;;;7.70;58.60;;;;;;5020210;28;20250;-66
2024/02/04 02:42:03;;;;;;;4.47;4.07;;;7.60;58.30;;;;;;5022176;28;20222;-66
2024/02/04 02:44:30;;;;;;;4.70;4.30;;;7.70;58.40;;;;;;5024142;28;20213;-66
2024/02/04 02:46:56;;;;;;;4.40;4.00;;;7.80;58.00;;;;;;5023192;28;20268;-66
2024/02/04 02:49:23;;;;;;;5.50;3.77;;;7.80;57.80;;;;;;5015372;28;20222;-65
2024/02/04 02:51:49;;;;;;;4.50;4.10;;;8.00;57.20;;;;;;5015996;28;20288;-66
2024/02/04 02:54:16;;;;;;;5.17;3.93;;;7.90;57.10;;;;;;5027074;28;20214;-66
2024/02/04 02:56:42;;;;;;;4.87;4.47;;;7.80;57.50;;;;;;5021094;28;20218;-66
2024/02/04 02:59:09;;;;;;;3.90;3.60;;;7.90;57.30;;;;;;5016218;28;20206;-66
2024/02/04 03:01:35;;;;;;;4.27;3.97;;;7.80;57.60;;;;;;5020243;28;20223;-66
2024/02/04 03:04:02;;;;;;;3.90;3.60;;;7.80;57.80;;;;;;5027217;28;20218;-66
2024/02/04 03:06:28;;;;;;;4.17;3.77;;;7.90;57.60;;;;;;5019788;28;20301;-66
2024/02/04 03:08:55;;;;;;;4.07;3.70;;;7.90;57.60;;;;;;5016837;28;21429;-66
2024/02/04 03:11:22;;;;;;;4.00;3.70;;;7.90;57.80;;;;;;5017840;28;20222;-66
2024/02/04 03:13:48;;;;;;;4.27;3.97;;;7.80;57.50;;;;;;5023862;28;20610;-66
2024/02/04 03:16:15;;;;;;;3.57;3.30;;;7.80;57.80;;;;;;5020339;28;20214;-66
2024/02/04 03:18:41;;;;;;;3.90;3.60;;;7.90;57.60;;;;;;5022899;28;20198;-66
2024/02/04 03:21:08;;;;;;;4.00;3.70;;;7.90;57.60;;;;;;5020434;28;20230;-66
2024/02/04 03:23:35;;;;;;;3.60;3.30;;;7.90;57.50;;;;;;5023026;28;20203;-65
2024/02/04 03:26:01;;;;;;;4.07;3.77;;;7.90;57.40;;;;;;5015842;28;20208;-65
2024/02/04 03:28:28;;;;;;;3.83;3.53;;;7.90;57.60;;;;;;5018818;28;20592;-66
2024/02/04 03:30:55;;;;;;;3.83;3.53;;;7.80;58.10;;;;;;5021660;28;20234;-65
2024/02/04 03:33:21;;;;;;;5.47;3.50;;;7.90;57.60;;;;;;5020572;28;20259;-65
2024/02/04 03:35:48;;;;;;;4.07;3.77;;;7.80;57.80;;;;;;5019584;28;20217;-66
2024/02/04 03:38:14;;;;;;;4.40;4.00;;;7.90;57.60;;;;;;5026781;28;20237;-66
2024/02/04 03:40:42;;;;;;;3.80;3.50;;;7.70;58.20;;;;;;5017869;28;20676;-65
2024/02/04 03:43:09;;;;;;;3.73;3.43;;;7.70;58.00;;;;;;5019865;28;20214;-66
2024/02/04 03:45:35;;;;;;;3.87;3.57;;;7.80;57.80;;;;;;5015998;28;20621;-65
2024/02/04 03:48:02;;;;;;;3.63;3.37;;;7.90;57.60;;;;;;5019331;28;20207;-66
2024/02/04 03:50:28;;;;;;;4.03;3.73;;;7.70;58.20;;;;;;5022237;28;20572;-67
2024/02/04 03:52:55;;;;;;;3.40;3.20;;;7.80;58.20;;;;;;5012160;28;20269;-66
2024/02/04 03:55:22;;;;;;;3.87;3.57;;;7.80;58.20;;;;;;5019664;28;20233;-66
2024/02/04 03:57:48;;;;;;;3.40;3.20;;;7.90;57.90;;;;;;5015220;28;20222;-65
2024/02/04 04:00:15;;;;;;;3.87;3.57;;;7.90;57.70;;;;;;5011119;28;20288;-66
2024/02/04 04:02:41;;;;;;;3.60;3.30;;;7.80;58.20;;;;;;5024420;28;20221;-66
2024/02/04 04:05:08;;;;;;;3.70;3.40;;;7.90;57.70;;;;;;5020458;28;20255;-66
2024/02/04 04:07:34;;;;;;;3.70;3.40;;;7.90;58.10;;;;;;5019439;28;20207;-66
2024/02/04 04:10:01;;;;;;;3.70;3.40;;;7.90;58.10;;;;;;5020749;28;20300;-65
2024/02/04 04:12:27;;;;;;;3.40;3.10;;;7.90;58.00;;;;;;5022835;28;20315;-65
2024/02/04 04:14:54;;;;;;;3.73;3.43;;;7.90;57.80;;;;;;5019974;28;20642;-66
2024/02/04 04:17:20;;;;;;;3.17;2.97;;;7.90;58.10;;;;;;5018172;28;20206;-66
2024/02/04 04:19:47;;;;;;;3.67;3.37;;;8.00;57.90;;;;;;5024440;28;20285;-66
2024/02/04 04:22:14;;;;;;;3.50;3.03;;;7.90;58.20;;;;;;5020310;28;20265;-66
2024/02/04 04:24:40;;;;;;;3.23;3.03;;;8.00;58.40;;;;;;5019787;28;20268;-66
2024/02/04 04:27:07;;;;;;;3.80;3.50;;;8.00;58.30;;;;;;5021032;28;20210;-66
2024/02/04 04:29:33;;;;;;;3.60;3.30;;;8.00;58.30;;;;;;5022537;28;20291;-66
2024/02/04 04:32:00;;;;;;;3.80;3.50;;;7.90;58.90;;;;;;5021174;28;20238;-66
2024/02/04 04:34:26;;;;;;;3.40;3.10;;;7.90;59.80;;;;;;5023292;28;20210;-66
2024/02/04 04:36:53;;;;;;;3.80;3.50;;;7.90;60.70;;;;;;5027271;28;20279;-66
2024/02/04 04:39:19;;;;;;;3.10;2.90;;;7.90;60.90;;;;;;5021873;28;20668;-66
2024/02/04 04:41:46;;;;;;;3.40;3.20;;;7.90;60.80;;;;;;5023720;28;20223;-65
2024/02/04 04:44:12;;;;;;;3.30;3.00;;;7.90;60.90;;;;;;5017106;28;20202;-66
2024/02/04 04:46:39;;;;;;;3.20;3.00;;;7.90;60.90;;;;;;5023552;28;20267;-66
2024/02/04 04:49:06;;;;;;;2.90;2.70;;;7.90;60.30;;;;;;5021839;28;20216;-66
2024/02/04 04:51:33;;;;;;;3.57;3.37;;;7.90;60.30;;;;;;5025717;28;20241;-66
2024/02/04 04:53:59;;;;;;;3.40;3.10;;;7.90;59.90;;;;;;5021371;28;20226;-65
2024/02/04 04:56:26;;;;;;;3.70;3.50;;;7.80;60.40;;;;;;5022293;28;20277;-65
2024/02/04 04:58:52;;;;;;;3.50;3.30;;;7.80;60.20;;;;;;5026408;28;20299;-66
2024/02/04 05:01:19;;;;;;;3.10;2.90;;;7.90;59.80;;;;;;5017650;28;20231;-66
2024/02/04 05:03:46;;;;;;;3.47;3.20;;;7.90;59.80;;;;;;5020205;28;20214;-66
2024/02/04 05:06:12;;;;;;;2.97;2.77;;;7.90;59.50;;;;;;5025053;28;20210;-66
2024/02/04 05:08:39;;;;;;;3.63;3.23;;;7.80;59.60;;;;;;5023928;28;20568;-66
2024/02/04 05:11:06;;;;;;;2.80;2.60;;;7.80;59.40;;;;;;5022812;28;20693;-66
2024/02/04 05:13:32;;;;;;;3.20;2.90;;;7.80;59.10;;;;;;5020843;28;20950;-66
2024/02/04 05:15:59;;;;;;;3.10;2.90;;;7.90;59.20;;;;;;5023057;28;20272;-66
2024/02/04 05:18:26;;;;;;;3.10;2.80;;;7.90;59.00;;;;;;5020304;28;20299;-66
2024/02/04 05:20:53;;;;;;;2.87;2.50;;;8.00;58.90;;;;;;5017259;28;20290;-66
2024/02/04 05:23:19;;;;;;;2.70;2.50;;;7.80;58.80;;;;;;5017599;28;20218;-66
2024/02/04 05:25:46;;;;;;;3.20;2.40;;;7.90;58.70;;;;;;5013076;28;20270;-66
2024/02/04 05:28:13;;;;;;;2.83;2.63;;;8.00;58.40;;;;;;5019066;28;20210;-65
2024/02/04 05:30:39;;;;;;;2.60;2.40;;;8.00;58.30;;;;;;5024507;28;20225;-65
2024/02/04 05:33:06;;;;;;;3.00;2.70;;;7.90;58.90;;;;;;5022011;28;20222;-65
2024/02/04 05:35:32;;;;;;;3.10;2.80;;;8.00;59.10;;;;;;5021923;28;20215;-66
2024/02/04 05:37:59;;;;;;;3.10;2.90;;;8.00;59.40;;;;;;5021433;28;20595;-66
2024/02/04 05:40:25;;;;;;;3.30;3.00;;;8.10;59.60;;;;;;5020761;28;20303;-66
2024/02/04 05:42:52;;;;;;;2.53;2.33;;;8.10;59.90;;;;;;5016664;28;20655;-66
2024/02/04 05:45:18;;;;;;;2.87;2.67;;;8.10;60.40;;;;;;5014593;28;20276;-66
2024/02/04 05:47:45;;;;;;;3.93;2.90;;;8.10;61.00;;;;;;5024269;28;20206;-66
2024/02/04 05:50:12;;;;;;;3.50;3.17;;;8.00;61.90;;;;;;5016055;28;20241;-66
2024/02/04 05:52:39;;;;;;;6.37;3.40;;;7.90;62.40;;;;;;5024814;28;20307;-66
2024/02/04 05:55:05;;;;;;;4.07;3.37;;;7.80;63.20;;;;;;5016179;28;20585;-66
2024/02/04 05:57:32;;;;;;;4.63;3.30;;;7.80;64.00;;;;;;5013230;28;20654;-66
2024/02/04 05:59:59;;;;;;;4.63;3.23;;;7.90;63.90;;;;;;5021154;28;20210;-66
2024/02/04 06:02:25;;;;;;;3.60;3.30;;;8.00;63.90;;;;;;5014971;28;20262;-66
2024/02/04 06:04:52;;;;;;;3.53;3.23;;;7.90;64.40;;;;;;5023874;28;20286;-66
2024/02/04 06:07:19;;;;;;;3.70;3.30;;;8.00;64.30;;;;;;5019608;28;20670;-65
2024/02/04 06:09:45;;;;;;;4.07;3.77;;;7.90;64.60;;;;;;5017626;28;20233;-66
2024/02/04 06:12:12;;;;;;;4.17;3.67;;;8.00;64.70;;;;;;5023254;28;20238;-66
2024/02/04 06:14:39;;;;;;;4.40;3.27;;;7.90;64.60;;;;;;5021048;28;20296;-66
2024/02/04 06:17:08;;;;;;;3.77;3.37;;;8.00;64.40;;;;;;5026581;28;20743;-66
2024/02/04 06:19:34;;;;;;;3.47;3.17;;;8.00;63.90;;;;;;5013051;28;20211;-66
2024/02/04 06:22:01;;;;;;;3.80;3.40;;;8.00;64.10;;;;;;5022430;28;20265;-66
2024/02/04 06:24:27;;;;;;;3.30;3.00;;;8.00;63.70;;;;;;5020783;28;20218;-66
2024/02/04 06:26:54;;;;;;;4.03;3.37;;;7.90;63.70;;;;;;5020540;28;20255;-66
2024/02/04 06:29:20;;;;;;;3.83;3.40;;;7.90;63.90;;;;;;5023486;28;20232;-66
2024/02/04 06:31:47;;;;;;;4.00;3.23;;;8.00;64.50;;;;;;5015861;28;20230;-66
2024/02/04 06:34:13;;;;;;;3.80;3.30;;;8.00;63.60;;;;;;5024760;28;20238;-66
2024/02/04 06:36:40;;;;;;;3.33;3.03;;;7.90;63.60;;;;;;5020907;28;20302;-66
2024/02/04 06:39:08;;;;;;;3.30;3.00;;;8.00;63.90;;;;;;5020995;28;20692;-66
2024/02/04 06:41:34;;;;;;;3.47;3.00;;;7.90;64.20;;;;;;5020189;28;20226;-66
2024/02/04 06:44:01;;;;;;;3.37;3.10;;;7.90;63.70;;;;;;5021196;28;20210;-66
2024/02/04 06:46:27;;;;;;;3.93;3.63;;;7.90;63.70;;;;;;5018337;28;20296;-66
2024/02/04 06:48:54;;;;;;;4.30;3.60;;;7.90;63.40;;;;;;5026071;28;20274;-66
2024/02/04 06:51:20;;;;;;;3.40;3.10;;;8.00;63.40;;;;;;5019961;28;20246;-66
2024/02/04 06:53:47;;;;;;;4.67;3.67;;;8.00;63.90;;;;;;5020273;28;20269;-66
2024/02/04 06:56:14;;;;;;;3.57;3.30;;;8.00;63.20;;;;;;5022749;28;20209;-66
2024/02/04 06:58:40;;;;;;;3.97;3.60;;;8.00;63.40;;;;;;5023422;28;20242;-66
2024/02/04 07:01:07;;;;;;;3.90;3.60;;;8.00;63.00;;;;;;5015908;28;20643;-65
2024/02/04 07:03:33;;;;;;;3.97;3.53;;;8.00;63.00;;;;;;5006692;28;20310;-65
2024/02/04 07:06:00;;;;;;;4.37;3.70;;;7.90;63.20;;;;;;5017296;28;20743;-66
2024/02/04 07:08:26;;;;;;;4.07;3.40;;;7.90;63.30;;;;;;5012865;28;20260;-66
2024/02/04 07:10:53;;;;;;;4.10;3.80;;;8.00;63.20;;;;;;5012196;28;20229;-66
2024/02/04 07:13:20;;;;;;;4.30;3.90;;;8.00;63.10;;;;;;5023382;28;20210;-66
2024/02/04 07:15:46;;;;;;;4.13;3.73;;;8.00;62.90;;;;;;5015388;28;20269;-66
2024/02/04 07:18:13;;;;;;;4.17;3.77;;;7.90;62.90;;;;;;5022321;28;20264;-66
2024/02/04 07:20:39;;;;;;;5.03;3.70;;;8.00;63.00;;;;;;5022140;28;20307;-66
2024/02/04 07:23:06;;;;;;;4.10;3.70;;;8.00;63.00;;;;;;5018653;28;20261;-66
2024/02/04 07:25:34;;;;;;;4.90;3.97;;;8.00;61.90;;;;;;5022893;28;20273;-67
2024/02/04 07:28:01;;;;;;;4.53;3.47;;;8.10;61.80;;;;;;5020969;28;20221;-66
2024/02/04 07:30:28;;;;;;;4.50;4.10;;;8.10;61.80;;;;;;5023080;28;20320;-66
2024/02/04 07:32:54;;;;;;;5.63;4.37;;;8.10;61.30;;;;;;5022602;28;20309;-66
2024/02/04 07:35:21;;;;;;;7.17;4.30;;;8.10;61.00;;;;;;5011808;28;20261;-66
2024/02/04 07:37:48;;;;;;;6.83;4.13;;;8.10;61.30;;;;;;5015313;28;20646;-65
2024/02/04 07:40:14;;;;;;;4.97;4.47;;;8.20;61.50;;;;;;5014648;28;20280;-66
2024/02/04 07:42:41;;;;;;;5.17;4.30;;;8.20;60.50;;;;;;5023195;28;20727;-66
2024/02/04 07:45:08;;;;;;;6.43;4.63;;;8.20;60.40;;;;;;5013465;28;20923;-66
2024/02/04 07:47:35;;;;;;;7.87;4.67;;;8.20;60.00;;;;;;5007867;28;20216;-65
2024/02/04 07:50:02;;;;;;;4.90;4.50;;;8.20;60.00;;;;;;5014467;28;20282;-65
2024/02/04 07:52:29;;;;;;;5.70;5.07;;;8.30;59.40;;;;;;5022748;28;20242;-65
2024/02/04 07:54:55;;;;;;;5.37;4.40;;;8.30;59.40;;;;;;5010266;28;20688;-66
2024/02/04 07:57:22;;;;;;;4.60;4.20;;;8.50;59.10;;;;;;5013243;28;20261;-66
2024/02/04 07:59:48;;;;;;;4.67;4.27;;;8.50;58.60;;;;;;5020061;28;20210;-66
2024/02/04 08:02:15;;;;;;;4.73;4.30;;;8.50;58.60;;;;;;5015032;28;20226;-66
2024/02/04 08:04:42;;;;;;;7.83;4.60;;;8.50;58.80;;;;;;5018275;28;20238;-66
2024/02/04 08:07:08;;;;;;;5.03;4.33;;;8.50;58.40;;;;;;5011877;28;20281;-66
2024/02/04 08:09:35;;;;;;;7.77;4.50;;;8.60;57.80;;;;;;5020487;28;20667;-65
2024/02/04 08:12:01;;;;;;;4.97;4.13;;;8.60;57.90;;;;;;5019764;28;20367;-66
2024/02/04 08:14:28;;;;;;;6.80;4.27;;;8.70;57.80;;;;;;5022603;28;20207;-66
2024/02/04 08:16:54;;;;;;;4.70;3.97;;;8.60;57.70;;;;;;5018586;28;20230;-66
2024/02/04 08:19:21;;;;;;;4.43;3.87;;;8.60;57.70;;;;;;5023380;28;20214;-65
2024/02/04 08:21:48;;;;;;;4.87;3.90;;;8.60;58.40;;;;;;5022519;28;20238;-66
2024/02/04 08:24:14;;;;;;;5.57;4.27;;;8.70;57.60;;;;;;5009342;28;20222;-66
2024/02/04 08:26:41;;;;;;;4.60;3.67;;;8.80;57.60;;;;;;5018783;28;20214;-66
2024/02/04 08:29:07;;;;;;;5.00;3.90;;;8.90;56.90;;;;;;5014999;28;20642;-66
2024/02/04 08:31:34;;;;;;;7.53;3.67;;;8.90;57.00;;;;;;5020265;28;20251;-67
2024/02/04 08:34:02;;;;;;;4.10;3.70;;;8.90;57.20;;;;;;5013668;28;20203;-66
2024/02/04 08:36:28;;;;;;;7.30;3.67;;;8.90;56.80;;;;;;5018110;28;20203;-66
2024/02/04 08:38:55;;;;;;;3.70;3.33;;;9.00;56.50;;;;;;5022415;28;20211;-66
2024/02/04 08:41:21;;;;;;;4.57;3.57;;;9.00;56.80;;;;;;5020261;28;20230;-66
2024/02/04 08:43:48;;;;;;;10.33;4.20;;;9.10;56.50;;;;;;5017583;28;20227;-69
2024/02/04 08:46:15;;;;;;;4.27;3.47;;;10.00;69.00;;;;;;5015288;28;20239;-66
2024/02/04 08:48:42;;;;;;;3.53;3.10;;;10.90;51.60;;;;;;5018481;28;20296;-66
2024/02/04 08:51:08;;;;;;;4.03;3.57;;;10.10;52.40;;;;;;5023500;28;20313;-65
2024/02/04 08:53:35;;;;;;;3.27;2.90;;;9.60;54.20;;;;;;5020574;28;20205;-66
2024/02/04 08:56:02;;;;;;;4.00;3.27;;;9.50;54.60;;;;;;5019669;28;20604;-65
2024/02/04 08:58:28;;;;;;;3.13;2.83;;;9.40;54.70;;;;;;5021032;28;20208;-65
2024/02/04 09:00:55;;;;;;;4.40;3.10;;;9.40;55.00;;;;;;5024981;28;20199;-66
2024/02/04 09:03:22;;;;;;;4.23;3.30;;;9.50;54.00;;;;;;5013970;28;20220;-66
2024/02/04 09:05:48;;;;;;;7.10;3.40;;;9.50;54.40;;;;;;5017965;28;20746;-66
2024/02/04 09:08:15;;;;;;;4.43;3.00;;;9.70;54.20;;;;;;5020046;28;20291;-66
2024/02/04 09:10:42;;;;;;;4.70;3.60;;;9.90;53.40;;;;;;5016725;28;20229;-65
2024/02/04 09:13:08;;;;;;;4.03;3.20;;;9.90;52.80;;;;;;5017805;28;20263;-66
2024/02/04 09:15:35;;;;;;;5.20;3.50;;;10.10;52.20;;;;;;5015852;28;20217;-66
2024/02/04 09:18:01;;;;;;;5.83;3.83;;;10.00;52.00;;;;;;5017532;28;20208;-66
2024/02/04 09:20:28;;;;;;;4.87;4.27;;;10.00;51.60;;;;;;5021866;28;20209;-66
2024/02/04 09:22:54;;;;;;;4.17;3.50;;;10.00;51.30;;;;;;5022004;28;20287;-66
2024/02/04 09:25:21;;;;;;;5.13;4.00;;;10.10;51.30;;;;;;5024648;28;20634;-66
2024/02/04 09:27:47;;;;;;;4.00;3.50;;;10.20;50.70;;;;;;5022015;28;20267;-66
2024/02/04 09:30:14;;;;;;;4.20;3.80;;;10.00;51.10;;;;;;5013575;28;20213;-66
2024/02/04 09:32:40;;;;;;;5.20;3.73;;;10.00;51.60;;;;;;5020830;28;20255;-66
2024/02/04 09:35:07;;;;;;;6.20;3.50;;;10.10;51.40;;;;;;5017723;28;20669;-66
2024/02/04 09:37:33;;;;;;;4.27;3.40;;;10.10;51.50;;;;;;5015644;28;20263;-67
2024/02/04 09:40:00;;;;;;;5.43;3.50;;;10.00;52.00;;;;;;5014538;28;20217;-66
2024/02/04 09:42:28;;;;;;;4.33;3.93;;;10.00;51.40;;;;;;5021015;28;20632;-67
2024/02/04 09:44:54;;;;;;;5.57;3.53;;;10.00;51.50;;;;;;5019728;28;20262;-66
2024/02/04 09:47:21;;;;;;;5.27;3.80;;;9.90;53.10;;;;;;5011344;28;20209;-66
2024/02/04 09:49:47;;;;;;;6.23;3.67;;;9.90;53.00;;;;;;5016471;28;20215;-66
2024/02/04 09:52:14;;;;;;;5.80;3.67;;;9.80;53.20;;;;;;5013668;28;20241;-67
2024/02/04 09:54:40;;;;;;;5.10;3.60;;;9.70;53.10;;;;;;5018469;28;20214;-65
2024/02/04 09:57:07;;;;;;;7.07;3.73;;;9.90;53.10;;;;;;5015267;28;20243;-69
2024/02/04 09:59:35;;;;;;;5.83;4.27;;;9.70;53.50;;;;;;5016965;28;20200;-66
2024/02/04 10:02:01;;;;;;;5.83;4.27;;;9.70;53.40;;;;;;5022075;28;20282;-66
2024/02/04 10:04:28;;;;;;;4.70;3.97;;;9.70;53.60;;;;;;5013945;28;20243;-66
2024/02/04 10:06:54;;;;;;;5.50;4.17;;;9.80;53.10;;;;;;5024245;28;20301;-67
2024/02/04 10:09:21;;;;;;;6.17;4.13;;;9.90;53.00;;;;;;5019871;28;20204;-67
2024/02/04 10:11:48;;;;;;;6.87;4.50;;;9.90;52.70;;;;;;5021160;28;20304;-67
2024/02/04 10:14:14;;;;;;;5.43;4.30;;;9.90;52.90;;;;;;5015048;28;20682;-67
2024/02/04 10:16:41;;;;;;;5.33;4.10;;;9.90;52.80;;;;;;5017487;28;20239;-67
2024/02/04 10:19:08;;;;;;;4.33;3.93;;;9.80;53.00;;;;;;5028453;28;20273;-66
2024/02/04 10:21:34;;;;;;;4.93;4.23;;;9.90;53.30;;;;;;5018531;28;20228;-67
2024/02/04 10:24:01;;;;;;;5.00;4.10;;;10.00;52.30;;;;;;5009621;28;20683;-67
2024/02/04 10:26:29;;;;;;;5.07;4.20;;;10.10;51.50;;;;;;5023438;28;20212;-67
2024/02/04 10:28:55;;;;;;;5.77;4.33;;;10.00;51.80;;;;;;5020182;28;20212;-67
2024/02/04 10:31:22;;;;;;;7.13;3.90;;;10.00;51.80;;;;;;5011805;28;20287;-67
2024/02/04 10:33:48;;;;;;;4.90;4.20;;;10.20;51.80;;;;;;5019810;28;20210;-67
2024/02/04 10:36:15;;;;;;;7.00;4.50;;;10.20;51.50;;;;;;5019530;28;20661;-67
2024/02/04 10:38:42;;;;;;;5.50;4.47;;;10.40;51.30;;;;;;5021758;28;20217;-67
2024/02/04 10:41:08;;;;;;;5.27;4.20;;;10.70;50.00;;;;;;5015565;28;20311;-67
2024/02/04 10:43:35;;;;;;;4.27;3.70;;;10.70;50.20;;;;;;5016153;28;20529;-67
2024/02/04 10:46:01;;;;;;;4.57;4.07;;;10.80;49.70;;;;;;5026874;28;20267;-67
2024/02/04 10:48:28;;;;;;;5.53;4.20;;;11.00;49.90;;;;;;5010168;28;20214;-67
2024/02/04 10:50:54;;;;;;;4.50;3.37;;;10.90;49.80;;;;;;5016409;28;20261;-67
2024/02/04 10:53:21;;;;;;;4.83;4.07;;;10.60;49.60;;;;;;5029931;28;20217;-67
2024/02/04 10:55:47;;;;;;;5.93;4.40;;;10.40;50.50;;;;;;5023141;28;20217;-67
2024/02/04 10:58:16;;;;;;;6.27;4.33;;;10.40;50.60;;;;;;5015497;28;20275;-67
2024/02/04 11:00:43;;;;;;;4.10;3.50;;;10.20;51.60;;;;;;5023014;28;20672;-67
2024/02/04 11:03:09;;;;;;;4.83;3.70;;;10.40;51.20;;;;;;5012921;28;20248;-67
2024/02/04 11:05:36;;;;;;;6.07;3.40;;;10.50;51.00;;;;;;5014206;28;20228;-67
2024/02/04 11:08:03;;;;;;;5.63;3.50;;;10.70;50.70;;;;;;5012376;28;20204;-67
2024/02/04 11:10:31;;;;;;;3.93;3.43;;;10.90;51.20;;;;;;5026649;28;20583;-67
2024/02/04 11:12:57;;;;;;;4.07;3.30;;;11.00;50.20;;;;;;5020045;28;20442;-67
2024/02/04 11:15:24;;;;;;;4.47;3.23;;;11.00;49.90;;;;;;5020873;28;20226;-67
2024/02/04 11:17:49;;;;;;;3.77;3.23;;;11.10;50.00;;;;;;5011695;28;20218;-67
2024/02/04 11:20:16;;;;;;;4.23;3.47;;;11.50;49.60;;;;;;5013676;28;20295;-67
2024/02/04 11:22:43;;;;;;;3.83;2.63;;;11.70;48.90;;;;;;5018436;28;20221;-67
2024/02/04 11:25:09;;;;;;;3.47;2.83;;;12.10;47.80;;;;;;5011689;28;21374;-67
2024/02/04 11:27:36;;;;;;;3.60;2.10;;;12.70;46.20;;;;;;5015551;28;20730;-67
2024/02/04 11:30:04;;;;;;;2.63;1.90;;;12.60;46.20;;;;;;4991506;28;20264;-67
2024/02/04 11:32:30;;;;;;;3.30;2.00;;;13.50;44.60;;;;;;5020919;28;20234;-67
2024/02/04 11:35:00;;;;;;;2.10;1.87;;;13.90;43.20;;;;;;5010028;28;20209;-67
2024/02/04 11:37:27;;;;;;;2.97;1.93;;;15.60;40.20;;;;;;5013468;28;20213;-68
2024/02/04 11:39:54;;;;;;;5.20;2.77;;;15.50;39.60;;;;;;5011923;28;20670;-68
2024/02/04 11:42:21;;;;;;;2.20;2.00;;;14.60;40.60;;;;;;4995734;28;20225;-68
2024/02/04 11:44:47;;;;;;;4.57;1.90;;;15.60;39.70;;;;;;5022141;28;20202;-67
2024/02/04 11:47:14;;;;;;;2.93;1.87;;;14.90;40.00;;;;;;5016217;28;20213;-67
2024/02/04 11:49:40;;;;;;;2.00;1.80;;;13.60;43.10;;;;;;5005307;28;20261;-67
2024/02/04 11:52:07;;;;;;;4.13;1.90;;;13.40;43.50;;;;;;5018602;28;20266;-67
2024/02/04 11:54:33;;;;;;;2.40;2.20;;;12.80;44.40;;;;;;5018624;28;20231;-66
2024/02/04 11:57:00;;;;;;;2.23;1.70;;;12.30;46.00;;;;;;5023681;28;20230;-67
2024/02/04 11:59:26;;;;;;;3.10;2.20;;;11.90;46.60;;;;;;5012744;28;20308;-66
2024/02/04 12:01:53;;;;;;;3.53;2.00;;;11.70;47.40;;;;;;5017919;28;20252;-66
2024/02/04 12:04:20;;;;;;;3.37;1.90;;;11.80;47.50;;;;;;5020106;28;20269;-67
2024/02/04 12:06:46;;;;;;;2.00;1.90;;;11.70;47.30;;;;;;5020584;28;20497;-66
2024/02/04 12:09:13;;;;;;;3.00;2.40;;;11.60;47.50;;;;;;5021062;28;20213;-66
2024/02/04 12:11:41;;;;;;;3.93;2.00;;;11.60;47.80;;;;;;5022869;28;20807;-66
2024/02/04 12:14:07;;;;;;;2.10;2.00;;;11.60;47.60;;;;;;5018180;28;20237;-66
2024/02/04 12:16:35;;;;;;;2.40;1.80;;;11.80;47.40;;;;;;5017180;28;20253;-66
2024/02/04 12:19:03;;;;;;;2.17;1.87;;;11.80;47.20;;;;;;5024111;28;20683;-67
2024/02/04 12:21:29;;;;;;;2.00;1.80;;;11.80;46.90;;;;;;5024684;28;20227;-66
2024/02/04 12:23:56;;;;;;;2.47;2.00;;;11.80;46.80;;;;;;5024377;28;21287;-66
2024/02/04 12:26:25;;;;;;;4.70;2.10;;;11.70;47.40;;;;;;5022518;28;20693;-66
2024/02/04 12:28:52;;;;;;;2.00;1.80;;;11.50;48.10;;;;;;5013428;28;20234;-66
2024/02/04 12:31:19;;;;;;;2.00;1.70;;;11.40;48.60;;;;;;5013434;28;20706;-67
2024/02/04 12:33:46;;;;;;;2.10;1.90;;;11.40;48.30;;;;;;5025056;28;20352;-67
2024/02/04 12:36:14;;;;;;;2.63;1.83;;;11.40;48.40;;;;;;5018416;28;20210;-66
2024/02/04 12:38:41;;;;;;;2.63;1.90;;;11.40;48.20;;;;;;5003439;28;20206;-66
2024/02/04 12:41:07;;;;;;;2.17;1.60;;;11.40;48.30;;;;;;5021520;28;20226;-66
2024/02/04 12:43:34;;;;;;;2.10;1.83;;;11.30;48.60;;;;;;5023067;28;20209;-66
2024/02/04 12:46:00;;;;;;;2.30;2.10;;;11.10;49.10;;;;;;5017918;28;20291;-65
2024/02/04 12:48:27;;;;;;;2.40;2.10;;;11.20;49.00;;;;;;5025856;28;20208;-66
2024/02/04 12:50:54;;;;;;;4.17;2.07;;;11.30;48.70;;;;;;5011392;28;20210;-66